sensor_id;sensor_type;location;lat;lon;timestamp;P1;durP1;ratioP1;P2;durP2;ratioP2
37455;SDS011;23316;50.718;7.328;2023-05-07T00:02:26;7.63;;;2.67;;
37455;SDS011;23316;50.718;7.328;2023-05-07T00:04:53;2.88;;;2.10;;
37455;SDS011;23316;50.718;7.328;2023-05-07T00:07:20;4.10;;;2.45;;
37455;SDS011;23316;50.718;7.328;2023-05-07T00:09:48;5.43;;;2.40;;
37455;SDS011;23316;50.718;7.328;2023-05-07T00:12:15;3.72;;;2.22;;
37455;SDS011;23316;50.718;7.328;2023-05-07T00:14:42;5.47;;;2.40;;
37455;SDS011;23316;50.718;7.328;2023-05-07T00:17:09;5.50;;;2.40;;
37455;SDS011;23316;50.718;7.328;2023-05-07T00:19:38;3.45;;;2.22;;
37455;SDS011;23316;50.718;7.328;2023-05-07T00:22:05;3.88;;;2.40;;
37455;SDS011;23316;50.718;7.328;2023-05-07T00:24:33;6.15;;;2.88;;
37455;SDS011;23316;50.718;7.328;2023-05-07T00:27:00;4.63;;;2.35;;
37455;SDS011;23316;50.718;7.328;2023-05-07T00:29:27;3.35;;;2.53;;
37455;SDS011;23316;50.718;7.328;2023-05-07T00:31:55;3.38;;;2.67;;
37455;SDS011;23316;50.718;7.328;2023-05-07T00:34:22;3.63;;;2.40;;
37455;SDS011;23316;50.718;7.328;2023-05-07T00:36:50;4.25;;;2.70;;
37455;SDS011;23316;50.718;7.328;2023-05-07T00:39:17;4.95;;;3.17;;
37455;SDS011;23316;50.718;7.328;2023-05-07T00:41:45;4.20;;;2.58;;
37455;SDS011;23316;50.718;7.328;2023-05-07T00:44:12;4.97;;;2.42;;
37455;SDS011;23316;50.718;7.328;2023-05-07T00:46:40;4.60;;;3.20;;
37455;SDS011;23316;50.718;7.328;2023-05-07T00:49:07;4.53;;;2.83;;
37455;SDS011;23316;50.718;7.328;2023-05-07T00:51:35;4.88;;;2.80;;
37455;SDS011;23316;50.718;7.328;2023-05-07T00:54:03;7.35;;;2.88;;
37455;SDS011;23316;50.718;7.328;2023-05-07T00:56:31;5.47;;;2.60;;
37455;SDS011;23316;50.718;7.328;2023-05-07T00:58:58;8.57;;;2.80;;
37455;SDS011;23316;50.718;7.328;2023-05-07T01:01:26;4.47;;;2.60;;
37455;SDS011;23316;50.718;7.328;2023-05-07T01:03:54;5.20;;;3.15;;
37455;SDS011;23316;50.718;7.328;2023-05-07T01:06:21;4.28;;;2.80;;
37455;SDS011;23316;50.718;7.328;2023-05-07T01:08:51;4.30;;;2.45;;
37455;SDS011;23316;50.718;7.328;2023-05-07T01:11:22;4.07;;;2.70;;
37455;SDS011;23316;50.718;7.328;2023-05-07T01:13:50;4.28;;;2.63;;
37455;SDS011;23316;50.718;7.328;2023-05-07T01:16:18;4.25;;;2.78;;
37455;SDS011;23316;50.718;7.328;2023-05-07T01:18:45;8.10;;;3.05;;
37455;SDS011;23316;50.718;7.328;2023-05-07T01:21:14;3.60;;;2.88;;
37455;SDS011;23316;50.718;7.328;2023-05-07T01:23:44;4.32;;;2.95;;
37455;SDS011;23316;50.718;7.328;2023-05-07T01:26:12;4.13;;;2.75;;
37455;SDS011;23316;50.718;7.328;2023-05-07T01:28:39;4.70;;;2.88;;
37455;SDS011;23316;50.718;7.328;2023-05-07T01:31:07;5.88;;;3.08;;
37455;SDS011;23316;50.718;7.328;2023-05-07T01:33:36;5.78;;;3.10;;
37455;SDS011;23316;50.718;7.328;2023-05-07T01:36:07;5.13;;;2.90;;
37455;SDS011;23316;50.718;7.328;2023-05-07T01:38:37;4.13;;;2.60;;
37455;SDS011;23316;50.718;7.328;2023-05-07T01:41:07;4.18;;;3.05;;
37455;SDS011;23316;50.718;7.328;2023-05-07T01:43:34;4.60;;;2.55;;
37455;SDS011;23316;50.718;7.328;2023-05-07T01:46:02;3.40;;;2.33;;
37455;SDS011;23316;50.718;7.328;2023-05-07T01:48:30;5.90;;;2.92;;
37455;SDS011;23316;50.718;7.328;2023-05-07T01:50:58;4.00;;;2.47;;
37455;SDS011;23316;50.718;7.328;2023-05-07T01:53:26;4.05;;;2.47;;
37455;SDS011;23316;50.718;7.328;2023-05-07T01:55:54;10.07;;;2.72;;
37455;SDS011;23316;50.718;7.328;2023-05-07T01:58:22;3.42;;;2.47;;
37455;SDS011;23316;50.718;7.328;2023-05-07T02:00:49;4.35;;;2.15;;
37455;SDS011;23316;50.718;7.328;2023-05-07T02:03:17;5.05;;;2.50;;
37455;SDS011;23316;50.718;7.328;2023-05-07T02:05:44;4.18;;;2.28;;
37455;SDS011;23316;50.718;7.328;2023-05-07T02:08:11;3.25;;;2.15;;
37455;SDS011;23316;50.718;7.328;2023-05-07T02:10:39;2.20;;;1.90;;
37455;SDS011;23316;50.718;7.328;2023-05-07T02:13:06;2.83;;;2.10;;
37455;SDS011;23316;50.718;7.328;2023-05-07T02:15:37;3.88;;;2.10;;
37455;SDS011;23316;50.718;7.328;2023-05-07T02:18:05;2.53;;;2.00;;
37455;SDS011;23316;50.718;7.328;2023-05-07T02:20:33;6.07;;;2.15;;
37455;SDS011;23316;50.718;7.328;2023-05-07T02:23:00;2.75;;;2.00;;
37455;SDS011;23316;50.718;7.328;2023-05-07T02:25:27;2.67;;;2.00;;
37455;SDS011;23316;50.718;7.328;2023-05-07T02:27:55;2.92;;;2.03;;
37455;SDS011;23316;50.718;7.328;2023-05-07T02:30:22;3.47;;;2.33;;
37455;SDS011;23316;50.718;7.328;2023-05-07T02:32:52;3.63;;;1.98;;
37455;SDS011;23316;50.718;7.328;2023-05-07T02:35:20;4.35;;;2.05;;
37455;SDS011;23316;50.718;7.328;2023-05-07T02:37:48;3.20;;;1.95;;
37455;SDS011;23316;50.718;7.328;2023-05-07T02:40:15;3.85;;;1.92;;
37455;SDS011;23316;50.718;7.328;2023-05-07T02:42:42;2.92;;;2.00;;
37455;SDS011;23316;50.718;7.328;2023-05-07T02:45:10;4.20;;;1.98;;
37455;SDS011;23316;50.718;7.328;2023-05-07T02:47:37;2.83;;;2.08;;
37455;SDS011;23316;50.718;7.328;2023-05-07T02:50:09;3.03;;;2.03;;
37455;SDS011;23316;50.718;7.328;2023-05-07T02:52:37;2.90;;;1.90;;
37455;SDS011;23316;50.718;7.328;2023-05-07T02:55:04;2.97;;;1.98;;
37455;SDS011;23316;50.718;7.328;2023-05-07T02:57:32;5.68;;;1.95;;
37455;SDS011;23316;50.718;7.328;2023-05-07T03:00:09;3.28;;;1.98;;
37455;SDS011;23316;50.718;7.328;2023-05-07T03:02:40;2.60;;;1.70;;
37455;SDS011;23316;50.718;7.328;2023-05-07T03:05:08;2.75;;;1.75;;
37455;SDS011;23316;50.718;7.328;2023-05-07T03:07:36;2.85;;;1.88;;
37455;SDS011;23316;50.718;7.328;2023-05-07T03:10:03;2.78;;;1.80;;
37455;SDS011;23316;50.718;7.328;2023-05-07T03:12:31;6.60;;;1.92;;
37455;SDS011;23316;50.718;7.328;2023-05-07T03:14:59;3.35;;;1.90;;
37455;SDS011;23316;50.718;7.328;2023-05-07T03:17:26;4.93;;;1.95;;
37455;SDS011;23316;50.718;7.328;2023-05-07T03:19:53;2.15;;;1.80;;
37455;SDS011;23316;50.718;7.328;2023-05-07T03:22:22;2.83;;;1.70;;
37455;SDS011;23316;50.718;7.328;2023-05-07T03:24:49;2.08;;;1.58;;
37455;SDS011;23316;50.718;7.328;2023-05-07T03:27:16;2.13;;;1.80;;
37455;SDS011;23316;50.718;7.328;2023-05-07T03:29:43;3.95;;;1.83;;
37455;SDS011;23316;50.718;7.328;2023-05-07T03:32:11;1.95;;;1.40;;
37455;SDS011;23316;50.718;7.328;2023-05-07T03:34:38;1.60;;;1.33;;
37455;SDS011;23316;50.718;7.328;2023-05-07T03:37:06;6.10;;;1.92;;
37455;SDS011;23316;50.718;7.328;2023-05-07T03:39:34;3.08;;;1.80;;
37455;SDS011;23316;50.718;7.328;2023-05-07T03:42:02;1.83;;;1.45;;
37455;SDS011;23316;50.718;7.328;2023-05-07T03:44:31;1.95;;;1.60;;
37455;SDS011;23316;50.718;7.328;2023-05-07T03:46:58;2.53;;;1.67;;
37455;SDS011;23316;50.718;7.328;2023-05-07T03:49:25;3.25;;;1.90;;
37455;SDS011;23316;50.718;7.328;2023-05-07T03:51:53;2.53;;;1.70;;
37455;SDS011;23316;50.718;7.328;2023-05-07T03:54:21;2.70;;;1.85;;
37455;SDS011;23316;50.718;7.328;2023-05-07T03:56:49;3.33;;;1.98;;
37455;SDS011;23316;50.718;7.328;2023-05-07T03:59:16;7.65;;;1.70;;
37455;SDS011;23316;50.718;7.328;2023-05-07T04:01:44;1.80;;;1.40;;
37455;SDS011;23316;50.718;7.328;2023-05-07T04:04:11;2.58;;;1.73;;
37455;SDS011;23316;50.718;7.328;2023-05-07T04:06:41;3.85;;;1.48;;
37455;SDS011;23316;50.718;7.328;2023-05-07T04:09:08;2.08;;;1.73;;
37455;SDS011;23316;50.718;7.328;2023-05-07T04:11:35;1.55;;;1.30;;
37455;SDS011;23316;50.718;7.328;2023-05-07T04:14:04;2.88;;;1.55;;
37455;SDS011;23316;50.718;7.328;2023-05-07T04:16:31;2.75;;;1.63;;
37455;SDS011;23316;50.718;7.328;2023-05-07T04:18:58;2.38;;;1.58;;
37455;SDS011;23316;50.718;7.328;2023-05-07T04:21:26;2.30;;;1.67;;
37455;SDS011;23316;50.718;7.328;2023-05-07T04:23:53;1.75;;;1.50;;
37455;SDS011;23316;50.718;7.328;2023-05-07T04:26:20;2.95;;;1.80;;
37455;SDS011;23316;50.718;7.328;2023-05-07T04:28:48;1.52;;;1.42;;
37455;SDS011;23316;50.718;7.328;2023-05-07T04:31:17;1.80;;;1.50;;
37455;SDS011;23316;50.718;7.328;2023-05-07T04:33:45;2.00;;;1.40;;
37455;SDS011;23316;50.718;7.328;2023-05-07T04:36:12;2.00;;;1.27;;
37455;SDS011;23316;50.718;7.328;2023-05-07T04:38:40;2.45;;;1.63;;
37455;SDS011;23316;50.718;7.328;2023-05-07T04:41:08;2.25;;;1.50;;
37455;SDS011;23316;50.718;7.328;2023-05-07T04:43:36;2.65;;;1.67;;
37455;SDS011;23316;50.718;7.328;2023-05-07T04:46:03;2.72;;;1.48;;
37455;SDS011;23316;50.718;7.328;2023-05-07T04:48:33;2.83;;;1.58;;
37455;SDS011;23316;50.718;7.328;2023-05-07T04:51:00;3.53;;;1.48;;
37455;SDS011;23316;50.718;7.328;2023-05-07T04:53:27;3.78;;;2.17;;
37455;SDS011;23316;50.718;7.328;2023-05-07T04:55:57;3.70;;;2.45;;
37455;SDS011;23316;50.718;7.328;2023-05-07T04:58:25;2.58;;;1.80;;
37455;SDS011;23316;50.718;7.328;2023-05-07T05:00:52;2.22;;;1.63;;
37455;SDS011;23316;50.718;7.328;2023-05-07T05:03:20;2.67;;;1.63;;
37455;SDS011;23316;50.718;7.328;2023-05-07T05:05:50;1.73;;;1.40;;
37455;SDS011;23316;50.718;7.328;2023-05-07T05:08:18;2.28;;;1.80;;
37455;SDS011;23316;50.718;7.328;2023-05-07T05:10:45;2.00;;;1.48;;
37455;SDS011;23316;50.718;7.328;2023-05-07T05:13:14;2.47;;;1.77;;
37455;SDS011;23316;50.718;7.328;2023-05-07T05:15:41;2.08;;;1.50;;
37455;SDS011;23316;50.718;7.328;2023-05-07T05:18:08;2.67;;;1.67;;
37455;SDS011;23316;50.718;7.328;2023-05-07T05:20:37;2.38;;;1.70;;
37455;SDS011;23316;50.718;7.328;2023-05-07T05:23:05;2.30;;;1.50;;
37455;SDS011;23316;50.718;7.328;2023-05-07T05:25:34;5.78;;;2.30;;
37455;SDS011;23316;50.718;7.328;2023-05-07T05:28:01;2.83;;;1.58;;
37455;SDS011;23316;50.718;7.328;2023-05-07T05:30:29;2.45;;;1.63;;
37455;SDS011;23316;50.718;7.328;2023-05-07T05:32:56;3.15;;;1.52;;
37455;SDS011;23316;50.718;7.328;2023-05-07T05:35:23;2.47;;;1.70;;
37455;SDS011;23316;50.718;7.328;2023-05-07T05:37:50;3.55;;;1.92;;
37455;SDS011;23316;50.718;7.328;2023-05-07T05:40:19;2.05;;;1.50;;
37455;SDS011;23316;50.718;7.328;2023-05-07T05:42:46;1.88;;;1.60;;
37455;SDS011;23316;50.718;7.328;2023-05-07T05:45:13;2.97;;;1.60;;
37455;SDS011;23316;50.718;7.328;2023-05-07T05:47:41;7.55;;;1.42;;
37455;SDS011;23316;50.718;7.328;2023-05-07T05:50:08;2.65;;;1.85;;
37455;SDS011;23316;50.718;7.328;2023-05-07T05:52:36;1.80;;;1.40;;
37455;SDS011;23316;50.718;7.328;2023-05-07T05:55:03;1.90;;;1.40;;
37455;SDS011;23316;50.718;7.328;2023-05-07T05:57:32;1.88;;;1.58;;
37455;SDS011;23316;50.718;7.328;2023-05-07T05:59:59;3.13;;;1.85;;
37455;SDS011;23316;50.718;7.328;2023-05-07T06:02:28;4.03;;;2.42;;
37455;SDS011;23316;50.718;7.328;2023-05-07T06:04:55;3.63;;;2.50;;
37455;SDS011;23316;50.718;7.328;2023-05-07T06:07:23;3.40;;;2.20;;
37455;SDS011;23316;50.718;7.328;2023-05-07T06:09:52;3.47;;;1.90;;
37455;SDS011;23316;50.718;7.328;2023-05-07T06:12:20;4.97;;;1.75;;
37455;SDS011;23316;50.718;7.328;2023-05-07T06:14:49;2.70;;;1.67;;
37455;SDS011;23316;50.718;7.328;2023-05-07T06:17:16;2.95;;;2.22;;
37455;SDS011;23316;50.718;7.328;2023-05-07T06:19:44;2.70;;;2.17;;
37455;SDS011;23316;50.718;7.328;2023-05-07T06:22:12;2.60;;;2.00;;
37455;SDS011;23316;50.718;7.328;2023-05-07T06:24:40;4.10;;;1.88;;
37455;SDS011;23316;50.718;7.328;2023-05-07T06:27:08;2.00;;;1.48;;
37455;SDS011;23316;50.718;7.328;2023-05-07T06:29:36;3.50;;;1.60;;
37455;SDS011;23316;50.718;7.328;2023-05-07T06:32:08;8.57;;;2.25;;
37455;SDS011;23316;50.718;7.328;2023-05-07T06:34:36;1.75;;;1.52;;
37455;SDS011;23316;50.718;7.328;2023-05-07T06:37:05;3.42;;;1.73;;
37455;SDS011;23316;50.718;7.328;2023-05-07T06:39:33;3.38;;;1.40;;
37455;SDS011;23316;50.718;7.328;2023-05-07T06:42:01;2.70;;;1.48;;
37455;SDS011;23316;50.718;7.328;2023-05-07T06:44:30;2.28;;;1.67;;
37455;SDS011;23316;50.718;7.328;2023-05-07T06:46:58;3.70;;;1.20;;
37455;SDS011;23316;50.718;7.328;2023-05-07T06:49:27;3.55;;;1.77;;
37455;SDS011;23316;50.718;7.328;2023-05-07T06:51:55;2.20;;;1.40;;
37455;SDS011;23316;50.718;7.328;2023-05-07T06:54:23;3.28;;;1.83;;
37455;SDS011;23316;50.718;7.328;2023-05-07T06:56:51;5.40;;;1.67;;
37455;SDS011;23316;50.718;7.328;2023-05-07T06:59:19;2.00;;;1.50;;
37455;SDS011;23316;50.718;7.328;2023-05-07T07:01:46;2.00;;;1.40;;
37455;SDS011;23316;50.718;7.328;2023-05-07T07:04:14;2.03;;;1.35;;
37455;SDS011;23316;50.718;7.328;2023-05-07T07:06:44;3.83;;;1.58;;
37455;SDS011;23316;50.718;7.328;2023-05-07T07:09:12;2.70;;;1.40;;
37455;SDS011;23316;50.718;7.328;2023-05-07T07:11:39;2.17;;;1.38;;
37455;SDS011;23316;50.718;7.328;2023-05-07T07:14:06;1.75;;;1.17;;
37455;SDS011;23316;50.718;7.328;2023-05-07T07:16:34;3.08;;;1.42;;
37455;SDS011;23316;50.718;7.328;2023-05-07T07:19:01;3.25;;;1.60;;
37455;SDS011;23316;50.718;7.328;2023-05-07T07:21:28;2.05;;;1.27;;
37455;SDS011;23316;50.718;7.328;2023-05-07T07:23:57;2.45;;;1.30;;
37455;SDS011;23316;50.718;7.328;2023-05-07T07:26:25;1.35;;;1.17;;
37455;SDS011;23316;50.718;7.328;2023-05-07T07:28:52;2.10;;;1.50;;
37455;SDS011;23316;50.718;7.328;2023-05-07T07:31:19;1.83;;;1.40;;
37455;SDS011;23316;50.718;7.328;2023-05-07T07:33:46;2.05;;;1.13;;
37455;SDS011;23316;50.718;7.328;2023-05-07T07:36:15;2.22;;;1.30;;
37455;SDS011;23316;50.718;7.328;2023-05-07T07:38:42;3.42;;;1.60;;
37455;SDS011;23316;50.718;7.328;2023-05-07T07:41:11;4.45;;;1.83;;
37455;SDS011;23316;50.718;7.328;2023-05-07T07:43:38;3.53;;;1.40;;
37455;SDS011;23316;50.718;7.328;2023-05-07T07:46:05;2.72;;;1.58;;
37455;SDS011;23316;50.718;7.328;2023-05-07T07:48:33;3.80;;;1.38;;
37455;SDS011;23316;50.718;7.328;2023-05-07T07:51:00;3.05;;;1.50;;
37455;SDS011;23316;50.718;7.328;2023-05-07T07:53:27;3.67;;;1.60;;
37455;SDS011;23316;50.718;7.328;2023-05-07T07:55:54;3.03;;;1.33;;
37455;SDS011;23316;50.718;7.328;2023-05-07T07:58:23;3.42;;;1.38;;
37455;SDS011;23316;50.718;7.328;2023-05-07T08:00:51;1.80;;;1.40;;
37455;SDS011;23316;50.718;7.328;2023-05-07T08:03:20;2.78;;;1.42;;
37455;SDS011;23316;50.718;7.328;2023-05-07T08:05:47;5.35;;;1.58;;
37455;SDS011;23316;50.718;7.328;2023-05-07T08:08:15;2.05;;;1.50;;
37455;SDS011;23316;50.718;7.328;2023-05-07T08:10:43;2.20;;;1.25;;
37455;SDS011;23316;50.718;7.328;2023-05-07T08:13:10;4.93;;;1.60;;
37455;SDS011;23316;50.718;7.328;2023-05-07T08:15:38;5.63;;;1.55;;
37455;SDS011;23316;50.718;7.328;2023-05-07T08:18:06;2.88;;;1.50;;
37455;SDS011;23316;50.718;7.328;2023-05-07T08:20:33;1.73;;;1.20;;
37455;SDS011;23316;50.718;7.328;2023-05-07T08:23:04;3.83;;;1.80;;
37455;SDS011;23316;50.718;7.328;2023-05-07T08:25:32;2.75;;;1.50;;
37455;SDS011;23316;50.718;7.328;2023-05-07T08:28:00;2.38;;;1.38;;
37455;SDS011;23316;50.718;7.328;2023-05-07T08:30:28;3.15;;;1.60;;
37455;SDS011;23316;50.718;7.328;2023-05-07T08:32:57;2.70;;;1.60;;
37455;SDS011;23316;50.718;7.328;2023-05-07T08:35:24;1.80;;;1.30;;
37455;SDS011;23316;50.718;7.328;2023-05-07T08:37:52;1.85;;;1.48;;
37455;SDS011;23316;50.718;7.328;2023-05-07T08:40:19;3.28;;;1.30;;
37455;SDS011;23316;50.718;7.328;2023-05-07T08:42:48;2.30;;;1.30;;
37455;SDS011;23316;50.718;7.328;2023-05-07T08:45:18;4.22;;;1.40;;
37455;SDS011;23316;50.718;7.328;2023-05-07T08:47:46;2.90;;;1.40;;
37455;SDS011;23316;50.718;7.328;2023-05-07T08:50:19;2.58;;;1.33;;
37455;SDS011;23316;50.718;7.328;2023-05-07T08:52:47;2.33;;;1.20;;
37455;SDS011;23316;50.718;7.328;2023-05-07T08:55:15;2.08;;;1.38;;
37455;SDS011;23316;50.718;7.328;2023-05-07T08:57:42;4.90;;;1.38;;
37455;SDS011;23316;50.718;7.328;2023-05-07T09:00:10;4.25;;;2.38;;
37455;SDS011;23316;50.718;7.328;2023-05-07T09:02:38;2.50;;;1.75;;
37455;SDS011;23316;50.718;7.328;2023-05-07T09:05:06;2.08;;;1.38;;
37455;SDS011;23316;50.718;7.328;2023-05-07T09:07:35;1.92;;;1.60;;
37455;SDS011;23316;50.718;7.328;2023-05-07T09:10:03;3.75;;;1.80;;
37455;SDS011;23316;50.718;7.328;2023-05-07T09:12:31;2.90;;;1.38;;
37455;SDS011;23316;50.718;7.328;2023-05-07T09:15:00;2.03;;;1.33;;
37455;SDS011;23316;50.718;7.328;2023-05-07T09:17:28;1.20;;;1.10;;
37455;SDS011;23316;50.718;7.328;2023-05-07T09:19:55;1.50;;;1.10;;
37455;SDS011;23316;50.718;7.328;2023-05-07T09:22:22;1.95;;;1.20;;
37455;SDS011;23316;50.718;7.328;2023-05-07T09:24:51;2.28;;;1.20;;
37455;SDS011;23316;50.718;7.328;2023-05-07T09:27:18;3.60;;;1.30;;
37455;SDS011;23316;50.718;7.328;2023-05-07T09:29:45;1.73;;;1.30;;
37455;SDS011;23316;50.718;7.328;2023-05-07T09:32:13;2.08;;;1.48;;
37455;SDS011;23316;50.718;7.328;2023-05-07T09:34:44;2.13;;;1.30;;
37455;SDS011;23316;50.718;7.328;2023-05-07T09:37:13;1.88;;;0.95;;
37455;SDS011;23316;50.718;7.328;2023-05-07T09:39:40;1.33;;;0.95;;
37455;SDS011;23316;50.718;7.328;2023-05-07T09:42:10;1.95;;;1.17;;
37455;SDS011;23316;50.718;7.328;2023-05-07T09:44:38;4.75;;;1.10;;
37455;SDS011;23316;50.718;7.328;2023-05-07T09:47:06;2.40;;;1.30;;
37455;SDS011;23316;50.718;7.328;2023-05-07T09:49:35;2.38;;;1.25;;
37455;SDS011;23316;50.718;7.328;2023-05-07T09:52:03;2.60;;;1.25;;
37455;SDS011;23316;50.718;7.328;2023-05-07T09:54:34;2.13;;;1.27;;
37455;SDS011;23316;50.718;7.328;2023-05-07T09:57:03;1.52;;;1.30;;
37455;SDS011;23316;50.718;7.328;2023-05-07T09:59:33;3.05;;;1.10;;
37455;SDS011;23316;50.718;7.328;2023-05-07T10:02:03;1.52;;;1.17;;
37455;SDS011;23316;50.718;7.328;2023-05-07T10:04:31;1.65;;;1.20;;
37455;SDS011;23316;50.718;7.328;2023-05-07T10:06:58;1.55;;;1.00;;
37455;SDS011;23316;50.718;7.328;2023-05-07T10:09:26;2.03;;;0.90;;
37455;SDS011;23316;50.718;7.328;2023-05-07T10:11:54;4.82;;;1.65;;
37455;SDS011;23316;50.718;7.328;2023-05-07T10:14:22;2.15;;;1.20;;
37455;SDS011;23316;50.718;7.328;2023-05-07T10:16:52;1.20;;;1.10;;
37455;SDS011;23316;50.718;7.328;2023-05-07T10:19:20;1.45;;;1.10;;
37455;SDS011;23316;50.718;7.328;2023-05-07T10:21:51;3.67;;;1.20;;
37455;SDS011;23316;50.718;7.328;2023-05-07T10:24:25;2.40;;;1.20;;
37455;SDS011;23316;50.718;7.328;2023-05-07T10:26:55;2.75;;;1.40;;
37455;SDS011;23316;50.718;7.328;2023-05-07T10:29:29;1.63;;;1.30;;
37455;SDS011;23316;50.718;7.328;2023-05-07T10:32:12;3.83;;;1.27;;
37455;SDS011;23316;50.718;7.328;2023-05-07T10:34:54;2.30;;;1.30;;
37455;SDS011;23316;50.718;7.328;2023-05-07T10:37:25;1.60;;;1.00;;
37455;SDS011;23316;50.718;7.328;2023-05-07T10:39:53;3.35;;;1.02;;
37455;SDS011;23316;50.718;7.328;2023-05-07T10:42:20;2.65;;;1.27;;
37455;SDS011;23316;50.718;7.328;2023-05-07T10:44:47;1.52;;;1.00;;
37455;SDS011;23316;50.718;7.328;2023-05-07T10:47:16;1.75;;;1.02;;
37455;SDS011;23316;50.718;7.328;2023-05-07T10:55:48;3.03;;;1.20;;
37455;SDS011;23316;50.718;7.328;2023-05-07T10:58:23;2.95;;;1.30;;
37455;SDS011;23316;50.718;7.328;2023-05-07T11:00:55;1.92;;;1.10;;
37455;SDS011;23316;50.718;7.328;2023-05-07T11:03:24;2.30;;;0.90;;
37455;SDS011;23316;50.718;7.328;2023-05-07T11:06:10;1.85;;;1.08;;
37455;SDS011;23316;50.718;7.328;2023-05-07T11:08:54;2.90;;;1.10;;
37455;SDS011;23316;50.718;7.328;2023-05-07T11:14:13;2.55;;;1.38;;
37455;SDS011;23316;50.718;7.328;2023-05-07T11:16:41;1.15;;;0.80;;
37455;SDS011;23316;50.718;7.328;2023-05-07T11:19:11;1.67;;;0.90;;
37455;SDS011;23316;50.718;7.328;2023-05-07T11:21:38;2.75;;;1.23;;
37455;SDS011;23316;50.718;7.328;2023-05-07T11:24:07;2.13;;;1.02;;
37455;SDS011;23316;50.718;7.328;2023-05-07T11:26:42;1.48;;;1.10;;
37455;SDS011;23316;50.718;7.328;2023-05-07T11:29:11;2.55;;;1.40;;
37455;SDS011;23316;50.718;7.328;2023-05-07T11:31:40;1.20;;;1.10;;
37455;SDS011;23316;50.718;7.328;2023-05-07T11:34:07;2.75;;;1.40;;
37455;SDS011;23316;50.718;7.328;2023-05-07T11:36:40;3.08;;;1.15;;
37455;SDS011;23316;50.718;7.328;2023-05-07T11:39:25;3.22;;;1.20;;
37455;SDS011;23316;50.718;7.328;2023-05-07T11:44:21;4.07;;;1.20;;
37455;SDS011;23316;50.718;7.328;2023-05-07T11:46:48;1.20;;;1.00;;
37455;SDS011;23316;50.718;7.328;2023-05-07T11:49:16;1.15;;;1.00;;
37455;SDS011;23316;50.718;7.328;2023-05-07T11:51:45;2.42;;;1.30;;
37455;SDS011;23316;50.718;7.328;2023-05-07T11:54:15;1.00;;;0.93;;
37455;SDS011;23316;50.718;7.328;2023-05-07T11:56:43;3.97;;;1.45;;
37455;SDS011;23316;50.718;7.328;2023-05-07T11:59:11;7.25;;;1.58;;
37455;SDS011;23316;50.718;7.328;2023-05-07T12:01:38;3.03;;;1.55;;
37455;SDS011;23316;50.718;7.328;2023-05-07T12:04:06;6.85;;;1.85;;
37455;SDS011;23316;50.718;7.328;2023-05-07T12:06:35;4.93;;;1.77;;
37455;SDS011;23316;50.718;7.328;2023-05-07T12:09:05;4.80;;;1.70;;
37455;SDS011;23316;50.718;7.328;2023-05-07T12:11:36;5.07;;;1.98;;
37455;SDS011;23316;50.718;7.328;2023-05-07T12:14:06;5.75;;;1.90;;
37455;SDS011;23316;50.718;7.328;2023-05-07T12:16:33;6.18;;;1.63;;
37455;SDS011;23316;50.718;7.328;2023-05-07T12:19:00;5.50;;;1.48;;
37455;SDS011;23316;50.718;7.328;2023-05-07T12:21:29;8.35;;;1.50;;
37455;SDS011;23316;50.718;7.328;2023-05-07T12:23:56;3.50;;;1.15;;
37455;SDS011;23316;50.718;7.328;2023-05-07T12:26:25;1.23;;;1.13;;
37455;SDS011;23316;50.718;7.328;2023-05-07T12:28:52;4.55;;;1.63;;
37455;SDS011;23316;50.718;7.328;2023-05-07T12:31:19;4.38;;;1.33;;
37455;SDS011;23316;50.718;7.328;2023-05-07T12:33:46;2.92;;;1.60;;
37455;SDS011;23316;50.718;7.328;2023-05-07T12:36:14;3.65;;;1.83;;
37455;SDS011;23316;50.718;7.328;2023-05-07T12:38:41;5.28;;;1.63;;
37455;SDS011;23316;50.718;7.328;2023-05-07T12:41:09;7.78;;;1.60;;
37455;SDS011;23316;50.718;7.328;2023-05-07T12:43:39;2.40;;;1.58;;
37455;SDS011;23316;50.718;7.328;2023-05-07T12:46:06;5.50;;;1.92;;
37455;SDS011;23316;50.718;7.328;2023-05-07T12:48:35;5.40;;;1.65;;
37455;SDS011;23316;50.718;7.328;2023-05-07T12:51:04;5.55;;;1.88;;
37455;SDS011;23316;50.718;7.328;2023-05-07T12:53:32;3.50;;;1.70;;
37455;SDS011;23316;50.718;7.328;2023-05-07T12:55:59;5.43;;;1.60;;
37455;SDS011;23316;50.718;7.328;2023-05-07T12:58:27;8.13;;;1.70;;
37455;SDS011;23316;50.718;7.328;2023-05-07T13:00:58;3.25;;;1.50;;
37455;SDS011;23316;50.718;7.328;2023-05-07T13:03:27;4.28;;;1.80;;
37455;SDS011;23316;50.718;7.328;2023-05-07T13:05:56;2.72;;;1.63;;
37455;SDS011;23316;50.718;7.328;2023-05-07T13:08:29;4.13;;;1.70;;
37455;SDS011;23316;50.718;7.328;2023-05-07T13:10:58;3.55;;;1.95;;
37455;SDS011;23316;50.718;7.328;2023-05-07T13:13:28;3.38;;;1.80;;
37455;SDS011;23316;50.718;7.328;2023-05-07T13:15:57;2.95;;;1.63;;
37455;SDS011;23316;50.718;7.328;2023-05-07T13:18:25;2.55;;;1.67;;
37455;SDS011;23316;50.718;7.328;2023-05-07T13:20:53;3.15;;;1.70;;
37455;SDS011;23316;50.718;7.328;2023-05-07T13:23:20;4.85;;;2.22;;
37455;SDS011;23316;50.718;7.328;2023-05-07T13:25:48;8.52;;;1.90;;
37455;SDS011;23316;50.718;7.328;2023-05-07T13:28:16;3.20;;;2.10;;
37455;SDS011;23316;50.718;7.328;2023-05-07T13:30:43;3.60;;;1.80;;
37455;SDS011;23316;50.718;7.328;2023-05-07T13:33:12;4.20;;;2.08;;
37455;SDS011;23316;50.718;7.328;2023-05-07T13:35:40;3.55;;;2.10;;
37455;SDS011;23316;50.718;7.328;2023-05-07T13:38:08;3.65;;;2.10;;
37455;SDS011;23316;50.718;7.328;2023-05-07T13:40:35;3.22;;;1.80;;
37455;SDS011;23316;50.718;7.328;2023-05-07T13:43:02;4.30;;;1.95;;
37455;SDS011;23316;50.718;7.328;2023-05-07T13:45:29;3.45;;;1.90;;
37455;SDS011;23316;50.718;7.328;2023-05-07T13:47:57;3.65;;;1.80;;
37455;SDS011;23316;50.718;7.328;2023-05-07T13:50:26;2.95;;;1.80;;
37455;SDS011;23316;50.718;7.328;2023-05-07T13:52:55;3.65;;;1.80;;
37455;SDS011;23316;50.718;7.328;2023-05-07T13:55:23;2.15;;;1.70;;
37455;SDS011;23316;50.718;7.328;2023-05-07T13:57:54;3.67;;;1.85;;
37455;SDS011;23316;50.718;7.328;2023-05-07T14:00:24;1.88;;;1.67;;
37455;SDS011;23316;50.718;7.328;2023-05-07T14:02:51;2.75;;;1.60;;
37455;SDS011;23316;50.718;7.328;2023-05-07T14:05:19;3.35;;;1.45;;
37455;SDS011;23316;50.718;7.328;2023-05-07T14:07:49;2.90;;;1.80;;
37455;SDS011;23316;50.718;7.328;2023-05-07T14:10:17;4.38;;;1.80;;
37455;SDS011;23316;50.718;7.328;2023-05-07T14:12:45;3.33;;;1.70;;
37455;SDS011;23316;50.718;7.328;2023-05-07T14:15:13;1.67;;;1.48;;
37455;SDS011;23316;50.718;7.328;2023-05-07T14:17:41;3.10;;;1.50;;
37455;SDS011;23316;50.718;7.328;2023-05-07T14:20:09;2.95;;;1.63;;
37455;SDS011;23316;50.718;7.328;2023-05-07T14:22:37;2.30;;;1.50;;
37455;SDS011;23316;50.718;7.328;2023-05-07T14:25:06;2.75;;;1.70;;
37455;SDS011;23316;50.718;7.328;2023-05-07T14:27:34;2.95;;;1.60;;
37455;SDS011;23316;50.718;7.328;2023-05-07T14:30:02;2.10;;;1.50;;
37455;SDS011;23316;50.718;7.328;2023-05-07T14:32:29;3.78;;;2.10;;
37455;SDS011;23316;50.718;7.328;2023-05-07T14:34:57;3.03;;;1.60;;
37455;SDS011;23316;50.718;7.328;2023-05-07T14:37:24;2.10;;;1.55;;
37455;SDS011;23316;50.718;7.328;2023-05-07T14:39:51;2.45;;;1.27;;
37455;SDS011;23316;50.718;7.328;2023-05-07T14:42:20;3.42;;;1.90;;
37455;SDS011;23316;50.718;7.328;2023-05-07T14:44:47;3.72;;;1.80;;
37455;SDS011;23316;50.718;7.328;2023-05-07T14:47:14;5.30;;;2.17;;
37455;SDS011;23316;50.718;7.328;2023-05-07T14:49:41;4.57;;;1.73;;
37455;SDS011;23316;50.718;7.328;2023-05-07T14:52:09;2.92;;;1.58;;
37455;SDS011;23316;50.718;7.328;2023-05-07T14:54:36;2.75;;;1.50;;
37455;SDS011;23316;50.718;7.328;2023-05-07T14:57:04;4.50;;;2.05;;
37455;SDS011;23316;50.718;7.328;2023-05-07T14:59:33;2.65;;;1.80;;
37455;SDS011;23316;50.718;7.328;2023-05-07T15:02:01;3.75;;;1.90;;
37455;SDS011;23316;50.718;7.328;2023-05-07T15:04:28;2.90;;;1.77;;
37455;SDS011;23316;50.718;7.328;2023-05-07T15:06:55;2.63;;;1.63;;